createdAt,value
2017-05-03T00:00:25.321Z,0
2017-05-03T00:01:25.312Z,0
2017-05-03T00:02:25.301Z,0
2017-05-03T00:03:25.300Z,0
2017-05-03T00:04:24.980Z,0
2017-05-03T00:05:25.276Z,0
2017-05-03T00:06:25.266Z,0
2017-05-03T00:07:25.261Z,0
2017-05-03T00:08:25.252Z,0
2017-05-03T00:09:25.238Z,0
2017-05-03T00:10:25.230Z,0
2017-05-03T00:11:25.214Z,0
2017-05-03T00:12:25.207Z,0
2017-05-03T00:13:25.201Z,0
2017-05-03T00:14:25.193Z,0
2017-05-03T00:15:24.881Z,0
2017-05-03T00:16:25.168Z,0
2017-05-03T00:17:25.167Z,0
2017-05-03T00:18:25.152Z,0
2017-05-03T00:19:24.869Z,0
2017-05-03T00:20:25.129Z,0
2017-05-03T00:21:25.154Z,0
2017-05-03T00:22:25.111Z,0
2017-05-03T00:23:24.801Z,0
2017-05-03T00:24:25.095Z,0
2017-05-03T00:25:25.082Z,0
2017-05-03T00:26:25.075Z,0
2017-05-03T00:27:25.070Z,0
2017-05-03T00:28:25.055Z,0
2017-05-03T00:29:25.047Z,0
2017-05-03T00:30:25.039Z,0
2017-05-03T00:31:25.020Z,0
2017-05-03T00:32:25.013Z,0
2017-05-03T00:33:24.706Z,0
2017-05-03T00:34:24.998Z,0
2017-05-03T00:35:24.986Z,0
2017-05-03T00:36:24.975Z,0
2017-05-03T00:37:24.968Z,0
2017-05-03T00:38:25.009Z,0
2017-05-03T00:39:24.961Z,0
2017-05-03T00:40:24.942Z,0
2017-05-03T00:41:24.927Z,0
2017-05-03T00:42:24.314Z,0
2017-05-03T00:43:24.622Z,0
2017-05-03T00:44:24.898Z,0
2017-05-03T00:45:24.901Z,0
2017-05-03T00:46:24.877Z,0
2017-05-03T00:47:24.870Z,0
2017-05-03T00:48:24.865Z,0
2017-05-03T00:49:24.852Z,0
2017-05-03T00:50:24.839Z,0
2017-05-03T00:51:24.839Z,0
2017-05-03T00:52:24.517Z,0
2017-05-03T00:53:24.820Z,0
2017-05-03T00:54:24.804Z,0
2017-05-03T00:55:24.790Z,0
2017-05-03T00:56:24.784Z,0
2017-05-03T00:57:24.773Z,0
2017-05-03T00:58:24.764Z,0
2017-05-03T00:59:24.767Z,0
2017-05-03T01:00:24.740Z,0
2017-05-03T01:01:24.429Z,0
2017-05-03T01:02:24.729Z,0
2017-05-03T01:03:24.716Z,0
2017-05-03T01:04:24.704Z,0
2017-05-03T01:05:24.696Z,0
2017-05-03T01:06:24.682Z,0
2017-05-03T01:07:24.674Z,0
2017-05-03T01:08:24.676Z,0
2017-05-03T01:09:24.654Z,0
2017-05-03T01:10:24.648Z,0
2017-05-03T01:11:24.636Z,0
2017-05-03T01:12:24.623Z,0
2017-05-03T01:13:24.623Z,0
2017-05-03T01:14:24.609Z,0
2017-05-03T01:15:24.599Z,0
2017-05-03T01:16:24.585Z,0
2017-05-03T01:17:24.577Z,0
2017-05-03T01:18:24.567Z,0
2017-05-03T01:19:24.558Z,0
2017-05-03T01:20:24.549Z,0
2017-05-03T01:21:24.538Z,0
2017-05-03T01:22:24.533Z,0
2017-05-03T01:23:24.524Z,0
2017-05-03T01:24:24.212Z,0
2017-05-03T01:25:24.503Z,0
2017-05-03T01:26:24.517Z,0
2017-05-03T01:27:24.484Z,0
2017-05-03T01:28:24.471Z,0
2017-05-03T01:29:24.167Z,0
2017-05-03T01:30:24.147Z,0
2017-05-03T01:31:24.448Z,0
2017-05-03T01:32:24.434Z,0
2017-05-03T01:33:24.443Z,0
2017-05-03T01:34:24.423Z,0
2017-05-03T01:35:24.407Z,0
2017-05-03T01:36:24.407Z,0
2017-05-03T01:37:24.390Z,0
2017-05-03T01:38:24.378Z,0
2017-05-03T01:39:24.068Z,0
2017-05-03T01:40:24.359Z,0
2017-05-03T01:41:24.389Z,0
2017-05-03T01:42:24.377Z,0
2017-05-03T01:43:24.028Z,0
2017-05-03T01:44:24.324Z,0
2017-05-03T01:45:24.314Z,0
2017-05-03T01:46:24.306Z,0
2017-05-03T01:47:24.294Z,0
2017-05-03T01:48:24.286Z,0
2017-05-03T01:49:24.281Z,0
2017-05-03T01:50:23.969Z,0
2017-05-03T01:51:24.257Z,0
2017-05-03T01:52:24.248Z,0
2017-05-03T01:53:24.244Z,0
2017-05-03T01:54:24.242Z,0
2017-05-03T01:55:24.222Z,0
2017-05-03T01:56:23.913Z,0
2017-05-03T01:57:24.206Z,0
2017-05-03T01:58:24.198Z,0
2017-05-03T01:59:23.887Z,0
2017-05-03T02:00:24.179Z,0
2017-05-03T02:01:24.174Z,0
2017-05-03T02:02:24.162Z,0
2017-05-03T02:03:24.155Z,0
2017-05-03T02:04:24.147Z,0
2017-05-03T02:05:24.132Z,0
2017-05-03T02:06:24.123Z,0
2017-05-03T02:07:24.115Z,0
2017-05-03T02:08:24.118Z,0
2017-05-03T02:09:24.101Z,0
2017-05-03T02:10:24.094Z,0
2017-05-03T02:11:24.079Z,0
2017-05-03T02:12:24.076Z,0
2017-05-03T02:13:24.062Z,0
2017-05-03T02:14:24.075Z,0
2017-05-03T02:15:24.044Z,0
2017-05-03T02:16:24.036Z,0
2017-05-03T02:17:24.031Z,0
2017-05-03T02:18:24.023Z,0
2017-05-03T02:19:24.015Z,0
2017-05-03T02:20:24.256Z,0
2017-05-03T02:21:23.993Z,0
2017-05-03T02:22:23.988Z,0
2017-05-03T02:23:23.984Z,0
2017-05-03T02:24:24.021Z,0
2017-05-03T02:25:23.959Z,0
2017-05-03T02:26:23.952Z,0
2017-05-03T02:27:23.945Z,0
2017-05-03T02:28:23.947Z,0
2017-05-03T02:29:23.929Z,0
2017-05-03T02:30:23.920Z,0
2017-05-03T02:31:23.612Z,0
2017-05-03T02:32:23.902Z,0
2017-05-03T02:33:23.895Z,0
2017-05-03T02:34:23.888Z,0
2017-05-03T02:35:23.875Z,0
2017-05-03T02:36:23.875Z,0
2017-05-03T02:37:23.863Z,0
2017-05-03T02:38:23.853Z,0
2017-05-03T02:39:23.848Z,0
2017-05-03T02:40:23.837Z,0
2017-05-03T02:41:23.826Z,0
2017-05-03T02:42:23.822Z,0
2017-05-03T02:43:23.509Z,0
2017-05-03T02:44:23.802Z,0
2017-05-03T02:45:23.794Z,0
2017-05-03T02:46:23.792Z,0
2017-05-03T02:47:23.782Z,0
2017-05-03T02:48:23.774Z,0
2017-05-03T02:49:23.765Z,0
2017-05-03T02:50:23.754Z,0
2017-05-03T02:51:23.747Z,0
2017-05-03T02:52:23.739Z,0
2017-05-03T02:53:23.735Z,0
2017-05-03T02:54:23.723Z,0
2017-05-03T02:55:23.712Z,0
2017-05-03T02:56:23.706Z,0
2017-05-03T02:57:23.695Z,0
2017-05-03T02:58:23.386Z,0
2017-05-03T02:59:23.682Z,4
2017-05-03T03:00:23.974Z,4
2017-05-03T03:01:23.666Z,4
2017-05-03T03:02:23.656Z,0
2017-05-03T03:03:23.646Z,4
2017-05-03T03:04:23.673Z,4
2017-05-03T03:05:23.640Z,4
2017-05-03T03:06:23.623Z,4
2017-05-03T03:07:23.614Z,8
2017-05-03T03:08:23.609Z,8
2017-05-03T03:09:23.615Z,8
2017-05-03T03:10:23.591Z,12
2017-05-03T03:11:23.591Z,12
2017-05-03T03:12:23.572Z,16
2017-05-03T03:13:23.569Z,16
2017-05-03T03:14:23.566Z,20
2017-05-03T03:15:23.546Z,20
2017-05-03T03:16:23.542Z,20
2017-05-03T03:17:23.539Z,24
2017-05-03T03:18:23.553Z,24
2017-05-03T03:19:23.515Z,32
2017-05-03T03:20:23.510Z,36
2017-05-03T03:21:23.501Z,44
2017-05-03T03:22:23.192Z,48
2017-05-03T03:23:23.182Z,60
2017-05-03T03:24:23.477Z,68
2017-05-03T03:25:23.468Z,80
2017-05-03T03:26:23.496Z,96
2017-05-03T03:27:23.451Z,116
2017-05-03T03:28:23.449Z,132
2017-05-03T03:29:23.436Z,136
2017-05-03T03:30:23.425Z,144
2017-05-03T03:31:23.116Z,152
2017-05-03T03:32:23.412Z,156
2017-05-03T03:33:23.404Z,156
2017-05-03T03:34:23.393Z,168
2017-05-03T03:35:23.385Z,180
2017-05-03T03:36:23.379Z,168
2017-05-03T03:37:23.384Z,172
2017-05-03T03:38:23.366Z,184
2017-05-03T03:39:23.359Z,208
2017-05-03T03:40:23.348Z,224
2017-05-03T03:41:23.340Z,236
2017-05-03T03:42:23.326Z,240
2017-05-03T03:43:23.339Z,256
2017-05-03T03:44:23.024Z,280
2017-05-03T03:45:23.303Z,296
2017-05-03T03:46:23.299Z,320
2017-05-03T03:47:23.288Z,328
2017-05-03T03:48:23.287Z,324
2017-05-03T03:49:23.274Z,336
2017-05-03T03:50:23.271Z,324
2017-05-03T03:51:22.953Z,324
2017-05-03T03:52:22.640Z,348
2017-05-03T03:53:22.940Z,396
2017-05-03T03:54:22.936Z,428
2017-05-03T03:55:23.227Z,428
2017-05-03T03:56:23.220Z,472
2017-05-03T03:57:23.211Z,464
2017-05-03T03:58:23.205Z,452
2017-05-03T03:59:23.196Z,480
2017-05-03T04:00:23.181Z,544
2017-05-03T04:01:23.176Z,544
2017-05-03T04:02:23.170Z,572
2017-05-03T04:03:23.162Z,608
2017-05-03T04:04:23.153Z,592
2017-05-03T04:05:23.148Z,584
2017-05-03T04:06:23.140Z,592
2017-05-03T04:07:23.134Z,632
2017-05-03T04:08:23.120Z,692
2017-05-03T04:09:23.116Z,676
2017-05-03T04:10:23.102Z,644
2017-05-03T04:11:23.100Z,656
2017-05-03T04:12:23.085Z,688
2017-05-03T04:13:22.778Z,704
2017-05-03T04:14:22.768Z,752
2017-05-03T04:15:23.072Z,776
2017-05-03T04:16:23.064Z,740
2017-05-03T04:17:23.049Z,772
2017-05-03T04:18:23.039Z,820
2017-05-03T04:19:22.729Z,848
2017-05-03T04:20:23.021Z,888
2017-05-03T04:21:23.015Z,876
2017-05-03T04:22:23.005Z,872
2017-05-03T04:23:22.999Z,808
2017-05-03T04:24:22.991Z,724
2017-05-03T04:25:22.679Z,792
2017-05-03T04:26:22.975Z,948
2017-05-03T04:27:22.964Z,964
2017-05-03T04:28:22.959Z,960
2017-05-03T04:29:22.948Z,1020
2017-05-03T04:30:22.942Z,1092
2017-05-03T04:31:22.633Z,1048
2017-05-03T04:32:22.925Z,1036
2017-05-03T04:33:22.921Z,1268
2017-05-03T04:34:22.910Z,1276
2017-05-03T04:35:22.900Z,1156
2017-05-03T04:36:22.897Z,1164
2017-05-03T04:37:22.883Z,1132
2017-05-03T04:38:22.578Z,1136
2017-05-03T04:39:22.566Z,1488
2017-05-03T04:40:22.593Z,1836
2017-05-03T04:41:22.858Z,1860
2017-05-03T04:42:22.545Z,1968
2017-05-03T04:43:22.534Z,1808
2017-05-03T04:44:22.829Z,1668
2017-05-03T04:45:22.818Z,1856
2017-05-03T04:46:22.509Z,2200
2017-05-03T04:47:22.809Z,2192
2017-05-03T04:48:22.806Z,2244
2017-05-03T04:49:22.796Z,2488
2017-05-03T04:50:22.781Z,2560
2017-05-03T04:51:22.772Z,2428
2017-05-03T04:52:22.770Z,2604
2017-05-03T04:53:22.758Z,2480
2017-05-03T04:54:22.773Z,3056
2017-05-03T04:55:22.439Z,3264
2017-05-03T04:56:22.435Z,3200
2017-05-03T04:57:22.422Z,2944
2017-05-03T04:58:22.112Z,2940
2017-05-03T04:59:22.408Z,3160
2017-05-03T05:00:22.397Z,3236
2017-05-03T05:01:22.392Z,2872
2017-05-03T05:02:22.384Z,2984
2017-05-03T05:03:22.677Z,3148
2017-05-03T05:04:22.366Z,3236
2017-05-03T05:05:22.359Z,3620
2017-05-03T05:06:22.349Z,3268
2017-05-03T05:07:22.646Z,3216
2017-05-03T05:08:22.334Z,3532
2017-05-03T05:09:22.628Z,3792
2017-05-03T05:10:22.317Z,4568
2017-05-03T05:11:22.311Z,5596
2017-05-03T05:12:22.605Z,5780
2017-05-03T05:13:22.306Z,5360
2017-05-03T05:14:22.295Z,5136
2017-05-03T05:15:22.281Z,4372
2017-05-03T05:16:22.272Z,4452
2017-05-03T05:17:22.569Z,4888
2017-05-03T05:18:22.564Z,5016
2017-05-03T05:19:21.950Z,5136
2017-05-03T05:20:22.253Z,5068
2017-05-03T05:21:22.237Z,5180
2017-05-03T05:22:21.925Z,5352
2017-05-03T05:23:22.219Z,5452
2017-05-03T05:24:21.911Z,5476
2017-05-03T05:25:22.243Z,5996
2017-05-03T05:26:21.592Z,6132
2017-05-03T05:27:22.195Z,6012
2017-05-03T05:28:22.488Z,5676
2017-05-03T05:29:22.177Z,4988
2017-05-03T05:30:22.170Z,4704
2017-05-03T05:31:22.464Z,5224
2017-05-03T05:32:22.153Z,4928
2017-05-03T05:33:21.844Z,4584
2017-05-03T05:34:21.835Z,4700
2017-05-03T05:35:22.131Z,5220
2017-05-03T05:36:22.127Z,5532
2017-05-03T05:37:22.119Z,5976
2017-05-03T05:38:22.419Z,5552
2017-05-03T05:39:22.115Z,5400
2017-05-03T05:40:22.105Z,5736
2017-05-03T05:41:22.088Z,5784
2017-05-03T05:42:22.395Z,6380
2017-05-03T05:43:21.780Z,6700
2017-05-03T05:44:22.377Z,6692
2017-05-03T05:45:22.373Z,6504
2017-05-03T05:46:22.357Z,6304
2017-05-03T05:47:22.353Z,6700
2017-05-03T05:48:22.342Z,7568
2017-05-03T05:49:22.037Z,8548
2017-05-03T05:50:22.035Z,9112
2017-05-03T05:51:22.020Z,10052
2017-05-03T05:52:22.012Z,10788
2017-05-03T05:53:22.318Z,11396
2017-05-03T05:54:22.006Z,10360
2017-05-03T05:55:22.300Z,11360
2017-05-03T05:56:21.994Z,10236
2017-05-03T05:57:21.991Z,9868
2017-05-03T05:58:21.976Z,9124
2017-05-03T05:59:21.962Z,8720
2017-05-03T06:00:21.968Z,9232
2017-05-03T06:01:21.649Z,9604
2017-05-03T06:02:22.262Z,10640
2017-05-03T06:03:22.242Z,9388
2017-05-03T06:04:21.928Z,8424
2017-05-03T06:05:22.226Z,7816
2017-05-03T06:06:22.219Z,10300
2017-05-03T06:07:22.230Z,10696
2017-05-03T06:08:22.217Z,9772
2017-05-03T06:09:21.899Z,10112
2017-05-03T06:10:22.195Z,9816
2017-05-03T06:11:21.885Z,9264
2017-05-03T06:12:22.182Z,9192
2017-05-03T06:13:22.182Z,9108
2017-05-03T06:14:22.172Z,8644
2017-05-03T06:15:22.172Z,9000
2017-05-03T06:16:22.160Z,9272
2017-05-03T06:17:21.851Z,9428
2017-05-03T06:18:22.147Z,8912
2017-05-03T06:19:22.143Z,9008
2017-05-03T06:20:21.834Z,9204
2017-05-03T06:21:22.128Z,8960
2017-05-03T06:22:22.128Z,8800
2017-05-03T06:23:21.863Z,8440
2017-05-03T06:24:22.117Z,9040
2017-05-03T06:25:22.103Z,10584
2017-05-03T06:26:22.101Z,10652
2017-05-03T06:27:22.094Z,8592
2017-05-03T06:28:22.091Z,8716
2017-05-03T06:29:21.775Z,9660
2017-05-03T06:30:22.072Z,9536
2017-05-03T06:31:22.112Z,8700
2017-05-03T06:32:22.061Z,6812
2017-05-03T06:33:21.755Z,8132
2017-05-03T06:34:22.049Z,8268
2017-05-03T06:35:22.049Z,8360
2017-05-03T06:36:22.039Z,8392
2017-05-03T06:37:21.726Z,7812
2017-05-03T06:38:22.068Z,7852
2017-05-03T06:39:22.022Z,9088
2017-05-03T06:40:22.011Z,10340
2017-05-03T06:41:22.007Z,10948
2017-05-03T06:42:22.002Z,12196
2017-05-03T06:43:21.998Z,12500
2017-05-03T06:44:21.690Z,11856
2017-05-03T06:45:21.373Z,11600
2017-05-03T06:46:21.975Z,10744
2017-05-03T06:47:21.673Z,11148
2017-05-03T06:48:21.966Z,11712
2017-05-03T06:49:21.962Z,12660
2017-05-03T06:50:21.954Z,14548
2017-05-03T06:51:21.950Z,13312
2017-05-03T06:52:21.939Z,12332
2017-05-03T06:53:21.935Z,11736
2017-05-03T06:54:21.929Z,11192
2017-05-03T06:55:21.622Z,10468
2017-05-03T06:56:21.615Z,11520
2017-05-03T06:57:21.610Z,12840
2017-05-03T06:58:21.902Z,12048
2017-05-03T06:59:21.907Z,11740
2017-05-03T07:00:21.889Z,11404
2017-05-03T07:01:21.887Z,10232
2017-05-03T07:02:21.880Z,9360
2017-05-03T07:03:21.576Z,9292
2017-05-03T07:04:21.870Z,9216
2017-05-03T07:05:21.560Z,9080
2017-05-03T07:06:21.860Z,9212
2017-05-03T07:07:21.851Z,9324
2017-05-03T07:08:21.875Z,9496
2017-05-03T07:09:21.538Z,10480
2017-05-03T07:10:21.835Z,11256
2017-05-03T07:11:21.830Z,11600
2017-05-03T07:12:21.824Z,10152
2017-05-03T07:13:21.830Z,9120
2017-05-03T07:14:21.817Z,9672
2017-05-03T07:15:21.499Z,10540
2017-05-03T07:16:21.801Z,11084
2017-05-03T07:17:21.795Z,11704
2017-05-03T07:18:21.788Z,13560
2017-05-03T07:19:21.788Z,14056
2017-05-03T07:20:21.471Z,13592
2017-05-03T07:21:21.766Z,13336
2017-05-03T07:22:21.762Z,13820
2017-05-03T07:23:21.756Z,13472
2017-05-03T07:24:21.754Z,12152
2017-05-03T07:25:21.751Z,12176
2017-05-03T07:26:21.745Z,12564
2017-05-03T07:27:21.734Z,13284
2017-05-03T07:28:21.728Z,12800
2017-05-03T07:29:21.723Z,11692
2017-05-03T07:30:21.720Z,11316
2017-05-03T07:31:21.411Z,11532
2017-05-03T07:32:21.407Z,12904
2017-05-03T07:33:21.707Z,13060
2017-05-03T07:34:21.700Z,12976
2017-05-03T07:35:21.690Z,12848
2017-05-03T07:36:21.382Z,13876
2017-05-03T07:37:21.382Z,13796
2017-05-03T07:38:21.681Z,13716
2017-05-03T07:39:21.373Z,11336
2017-05-03T07:40:21.664Z,11248
2017-05-03T07:41:21.668Z,10976
2017-05-03T07:42:21.997Z,11016
2017-05-03T07:43:21.654Z,11716
2017-05-03T07:44:21.344Z,13116
2017-05-03T07:45:21.642Z,15828
2017-05-03T07:46:21.634Z,15784
2017-05-03T07:47:21.322Z,14540
2017-05-03T07:48:21.628Z,14780
2017-05-03T07:49:21.316Z,15032
2017-05-03T07:50:21.306Z,13228
2017-05-03T07:51:21.605Z,13280
2017-05-03T07:52:21.602Z,14808
2017-05-03T07:53:21.296Z,16640
2017-05-03T07:54:21.287Z,14996
2017-05-03T07:55:21.290Z,14124
2017-05-03T07:56:21.585Z,14852
2017-05-03T07:57:21.574Z,15832
2017-05-03T07:58:21.569Z,17344
2017-05-03T07:59:21.260Z,19424
2017-05-03T08:00:21.257Z,18496
2017-05-03T08:01:21.561Z,18432
2017-05-03T08:02:21.246Z,18176
2017-05-03T08:03:21.556Z,17152
2017-05-03T08:04:21.237Z,16960
2017-05-03T08:05:21.230Z,15740
2017-05-03T08:06:21.230Z,16416
2017-05-03T08:07:21.224Z,16992
2017-05-03T08:08:21.219Z,17408
2017-05-03T08:09:21.517Z,18848
2017-05-03T08:10:21.215Z,21504
2017-05-03T08:11:21.206Z,22752
2017-05-03T08:12:21.203Z,27488
2017-05-03T08:13:21.202Z,30560
2017-05-03T08:14:21.496Z,26560
2017-05-03T08:15:21.184Z,25152
2017-05-03T08:16:21.432Z,27616
2017-05-03T08:17:21.183Z,28768
2017-05-03T08:18:20.873Z,33056
2017-05-03T08:19:20.865Z,30240
2017-05-03T08:20:21.208Z,27104
2017-05-03T08:21:21.160Z,25280
2017-05-03T08:22:21.158Z,25632
2017-05-03T08:23:21.159Z,24512
2017-05-03T08:24:21.154Z,24064
2017-05-03T08:25:21.149Z,24512
2017-05-03T08:26:21.448Z,22368
2017-05-03T08:27:21.449Z,22432
2017-05-03T08:28:21.443Z,21888
2017-05-03T08:29:21.136Z,19968
2017-05-03T08:30:21.434Z,19616
2017-05-03T08:31:21.428Z,20352
2017-05-03T08:32:21.434Z,23968
2017-05-03T08:33:21.427Z,22624
2017-05-03T08:34:21.429Z,20128
2017-05-03T08:35:21.420Z,21152
2017-05-03T08:36:21.419Z,23360
2017-05-03T08:37:21.412Z,24128
2017-05-03T08:38:21.107Z,22848
2017-05-03T08:39:20.802Z,20992
2017-05-03T08:40:21.408Z,24288
2017-05-03T08:41:21.404Z,23392
2017-05-03T08:42:20.493Z,21504
2017-05-03T08:43:21.096Z,23200
2017-05-03T08:44:20.790Z,23584
2017-05-03T08:45:21.392Z,24128
2017-05-03T08:46:21.396Z,24512
2017-05-03T08:47:21.085Z,23680
2017-05-03T08:48:21.382Z,22880
2017-05-03T08:49:21.385Z,24096
2017-05-03T08:50:21.072Z,24160
2017-05-03T08:51:21.378Z,23136
2017-05-03T08:52:21.371Z,23808
2017-05-03T08:53:21.373Z,21408
2017-05-03T08:54:21.368Z,20160
2017-05-03T08:55:21.385Z,20768
2017-05-03T08:56:21.361Z,19712
2017-05-03T08:57:21.059Z,19168
2017-05-03T08:58:21.356Z,18528
2017-05-03T08:59:21.350Z,19424
2017-05-03T09:00:21.351Z,19776
2017-05-03T09:01:21.072Z,20768
2017-05-03T09:02:21.048Z,21760
2017-05-03T09:03:21.054Z,21344
2017-05-03T09:04:21.044Z,20000
2017-05-03T09:05:21.342Z,19712
2017-05-03T09:06:21.338Z,18688
2017-05-03T09:07:21.343Z,18400
2017-05-03T09:08:21.345Z,18400
2017-05-03T09:09:21.339Z,18080
2017-05-03T09:10:21.027Z,18176
2017-05-03T09:11:21.326Z,18112
2017-05-03T09:12:21.324Z,17856
2017-05-03T09:13:21.018Z,17280
2017-05-03T09:14:20.713Z,17120
2017-05-03T09:15:21.312Z,16416
2017-05-03T09:16:21.312Z,16224
2017-05-03T09:17:21.006Z,17792
2017-05-03T09:18:21.306Z,18208
2017-05-03T09:19:21.310Z,17888
2017-05-03T09:20:21.304Z,18176
2017-05-03T09:21:21.300Z,19424
2017-05-03T09:22:21.298Z,19168
2017-05-03T09:23:21.297Z,19680
2017-05-03T09:24:21.293Z,19392
2017-05-03T09:25:21.294Z,19104
2017-05-03T09:26:21.290Z,19360
2017-05-03T09:27:21.285Z,19040
2017-05-03T09:28:21.283Z,19840
2017-05-03T09:29:20.983Z,18880
2017-05-03T09:30:20.976Z,18592
2017-05-03T09:31:21.277Z,21344
2017-05-03T09:32:21.272Z,22208
2017-05-03T09:33:20.665Z,21792
2017-05-03T09:34:20.969Z,24640
2017-05-03T09:35:21.269Z,26048
2017-05-03T09:36:21.267Z,25696
2017-05-03T09:37:20.959Z,24800
2017-05-03T09:38:21.262Z,24864
2017-05-03T09:39:21.258Z,24096
2017-05-03T09:40:21.259Z,25056
2017-05-03T09:41:21.256Z,26016
2017-05-03T09:42:21.254Z,28160
2017-05-03T09:43:21.246Z,28128
2017-05-03T09:44:21.249Z,27648
2017-05-03T09:45:20.638Z,28384
2017-05-03T09:46:21.242Z,30464
2017-05-03T09:47:21.241Z,30560
2017-05-03T09:48:21.248Z,28928
2017-05-03T09:49:20.936Z,27360
2017-05-03T09:50:21.237Z,28064
2017-05-03T09:51:21.243Z,29024
2017-05-03T09:52:21.242Z,29472
2017-05-03T09:53:20.941Z,30592
2017-05-03T09:54:21.233Z,29408
2017-05-03T09:55:21.239Z,26464
2017-05-03T09:56:20.931Z,27872
2017-05-03T09:57:21.234Z,31776
2017-05-03T09:58:20.933Z,30368
2017-05-03T09:59:21.234Z,30176
2017-05-03T10:00:20.933Z,29504
2017-05-03T10:01:21.235Z,29824
2017-05-03T10:02:20.927Z,30080
2017-05-03T10:03:21.234Z,30848
2017-05-03T10:04:21.233Z,32064
2017-05-03T10:05:21.243Z,29792
2017-05-03T10:06:21.232Z,27840
2017-05-03T10:07:21.230Z,29184
2017-05-03T10:08:21.233Z,28352
2017-05-03T10:09:21.232Z,27648
2017-05-03T10:10:21.273Z,25312
2017-05-03T10:11:20.936Z,23872
2017-05-03T10:12:20.936Z,22240
2017-05-03T10:13:21.239Z,23072
2017-05-03T10:14:20.939Z,25312
2017-05-03T10:15:21.253Z,23296
2017-05-03T10:16:21.239Z,21728
2017-05-03T10:17:20.941Z,19520
2017-05-03T10:18:20.941Z,18720
2017-05-03T10:19:21.242Z,18112
2017-05-03T10:20:21.248Z,18688
2017-05-03T10:21:21.247Z,19872
2017-05-03T10:22:21.247Z,23328
2017-05-03T10:23:20.945Z,23360
2017-05-03T10:24:21.254Z,22400
2017-05-03T10:25:21.251Z,24256
2017-05-03T10:26:21.258Z,23200
2017-05-03T10:27:20.943Z,21504
2017-05-03T10:28:21.249Z,21888
2017-05-03T10:29:20.950Z,24032
2017-05-03T10:30:20.947Z,26784
2017-05-03T10:31:20.951Z,26144
2017-05-03T10:32:20.948Z,23968
2017-05-03T10:33:21.252Z,22080
2017-05-03T10:34:20.946Z,20384
2017-05-03T10:35:21.251Z,19392
2017-05-03T10:36:21.253Z,18688
2017-05-03T10:37:21.261Z,18752
2017-05-03T10:38:20.949Z,19808
2017-05-03T10:39:21.258Z,20960
2017-05-03T10:40:21.254Z,21376
2017-05-03T10:41:20.959Z,19904
2017-05-03T10:42:21.251Z,16664
2017-05-03T10:43:21.253Z,15268
2017-05-03T10:44:21.254Z,16012
2017-05-03T10:45:21.252Z,17568
2017-05-03T10:46:21.252Z,16704
2017-05-03T10:47:21.256Z,16144
2017-05-03T10:48:21.252Z,14436
2017-05-03T10:49:21.254Z,14244
2017-05-03T10:50:20.952Z,17408
2017-05-03T10:51:21.256Z,22912
2017-05-03T10:52:21.252Z,24896
2017-05-03T10:53:21.274Z,24992
2017-05-03T10:54:21.247Z,24160
2017-05-03T10:55:20.947Z,20800
2017-05-03T10:56:21.248Z,18176
2017-05-03T10:57:21.249Z,16404
2017-05-03T10:58:21.250Z,16380
2017-05-03T10:59:21.248Z,16832
2017-05-03T11:00:21.248Z,17472
2017-05-03T11:01:20.958Z,18560
2017-05-03T11:02:21.247Z,19296
2017-05-03T11:03:21.246Z,20288
2017-05-03T11:04:21.243Z,20576
2017-05-03T11:05:21.243Z,20768
2017-05-03T11:06:21.242Z,21024
2017-05-03T11:07:21.242Z,21120
2017-05-03T11:08:21.240Z,20288
2017-05-03T11:09:21.248Z,20544
2017-05-03T11:10:21.240Z,21664
2017-05-03T11:11:20.932Z,20896
2017-05-03T11:12:20.937Z,24160
2017-05-03T11:13:21.236Z,24928
2017-05-03T11:14:21.238Z,24736
2017-05-03T11:15:21.232Z,25024
2017-05-03T11:16:20.928Z,24928
2017-05-03T11:17:20.931Z,21184
2017-05-03T11:18:20.936Z,19392
2017-05-03T11:19:20.926Z,20288
2017-05-03T11:20:20.929Z,20544
2017-05-03T11:21:21.243Z,17856
2017-05-03T11:22:20.925Z,17664
2017-05-03T11:23:20.922Z,15936
2017-05-03T11:24:20.927Z,13184
2017-05-03T11:25:20.921Z,13276
2017-05-03T11:26:20.924Z,15388
2017-05-03T11:27:20.925Z,17600
2017-05-03T11:28:21.231Z,17536
2017-05-03T11:29:20.923Z,16144
2017-05-03T11:30:20.922Z,16764
2017-05-03T11:31:21.227Z,16888
2017-05-03T11:32:21.227Z,15772
2017-05-03T11:33:20.614Z,17984
2017-05-03T11:34:21.226Z,20128
2017-05-03T11:35:21.219Z,20192
2017-05-03T11:36:21.215Z,21696
2017-05-03T11:37:20.920Z,23264
2017-05-03T11:38:21.215Z,20096
2017-05-03T11:39:21.214Z,17280
2017-05-03T11:40:21.434Z,16352
2017-05-03T11:41:20.910Z,16576
2017-05-03T11:42:20.911Z,19360
2017-05-03T11:43:21.213Z,23136
2017-05-03T11:44:21.213Z,25664
2017-05-03T11:45:21.211Z,24672
2017-05-03T11:46:21.211Z,23360
2017-05-03T11:47:20.599Z,24064
2017-05-03T11:48:20.908Z,22080
2017-05-03T11:49:21.205Z,20928
2017-05-03T11:50:21.209Z,20544
2017-05-03T11:51:21.205Z,19968
2017-05-03T11:52:21.204Z,17888
2017-05-03T11:53:21.206Z,16396
2017-05-03T11:54:21.199Z,17408
2017-05-03T11:55:21.200Z,16296
2017-05-03T11:56:21.203Z,17888
2017-05-03T11:57:21.209Z,20288
2017-05-03T11:58:21.200Z,19296
2017-05-03T11:59:21.202Z,18752
2017-05-03T12:00:21.197Z,18336
2017-05-03T12:01:21.202Z,18816
2017-05-03T12:02:21.197Z,19072
2017-05-03T12:03:21.202Z,17984
2017-05-03T12:04:21.199Z,16264
2017-05-03T12:05:21.192Z,14308
2017-05-03T12:06:21.199Z,12996
2017-05-03T12:07:21.193Z,12028
2017-05-03T12:08:21.197Z,13012
2017-05-03T12:09:21.194Z,13280
2017-05-03T12:10:21.196Z,12208
2017-05-03T12:11:21.190Z,12940
2017-05-03T12:12:21.186Z,14184
2017-05-03T12:13:21.189Z,12584
2017-05-03T12:14:21.185Z,14356
2017-05-03T12:15:21.185Z,16864
2017-05-03T12:16:21.182Z,18336
2017-05-03T12:17:20.875Z,19488
2017-05-03T12:18:21.178Z,20640
2017-05-03T12:19:21.181Z,18720
2017-05-03T12:20:21.191Z,19360
2017-05-03T12:21:21.174Z,18624
2017-05-03T12:22:21.175Z,16224
2017-05-03T12:23:21.173Z,15092
2017-05-03T12:24:21.168Z,14976
2017-05-03T12:25:21.170Z,15800
2017-05-03T12:26:21.166Z,16064
2017-05-03T12:27:20.861Z,16256
2017-05-03T12:28:21.163Z,14404
2017-05-03T12:29:21.161Z,12956
2017-05-03T12:30:21.165Z,12904
2017-05-03T12:31:21.162Z,11692
2017-05-03T12:32:20.852Z,10816
2017-05-03T12:33:21.160Z,10316
2017-05-03T12:34:21.167Z,10136
2017-05-03T12:35:21.155Z,10152
2017-05-03T12:36:21.170Z,10488
2017-05-03T12:37:21.151Z,11128
2017-05-03T12:38:21.147Z,11908
2017-05-03T12:39:21.150Z,13352
2017-05-03T12:40:21.144Z,15408
2017-05-03T12:41:21.153Z,16992
2017-05-03T12:42:20.839Z,17472
2017-05-03T12:43:21.147Z,19360
2017-05-03T12:44:20.853Z,20320
2017-05-03T12:45:21.138Z,19616
2017-05-03T12:46:21.138Z,17984
2017-05-03T12:47:21.135Z,15272
2017-05-03T12:48:21.132Z,14556
2017-05-03T12:49:21.131Z,15644
2017-05-03T12:50:21.129Z,19808
2017-05-03T12:51:20.823Z,23072
2017-05-03T12:52:21.124Z,20928
2017-05-03T12:53:20.818Z,18688
2017-05-03T12:54:21.120Z,16672
2017-05-03T12:55:21.120Z,14140
2017-05-03T12:56:20.815Z,13696
2017-05-03T12:57:21.123Z,14148
2017-05-03T12:58:21.116Z,14920
2017-05-03T12:59:21.118Z,15252
2017-05-03T13:00:20.810Z,17024
2017-05-03T13:01:21.110Z,19168
2017-05-03T13:02:20.804Z,20864
2017-05-03T13:03:20.810Z,20000
2017-05-03T13:04:20.803Z,19968
2017-05-03T13:05:20.802Z,19840
2017-05-03T13:06:20.501Z,19488
2017-05-03T13:07:20.800Z,18432
2017-05-03T13:08:21.099Z,16224
2017-05-03T13:09:21.100Z,14548
2017-05-03T13:10:21.097Z,15136
2017-05-03T13:11:21.098Z,16000
2017-05-03T13:12:20.792Z,16192
2017-05-03T13:13:21.091Z,16960
2017-05-03T13:14:20.790Z,18016
2017-05-03T13:15:21.092Z,17920
2017-05-03T13:16:21.089Z,17856
2017-05-03T13:17:21.094Z,17696
2017-05-03T13:18:20.782Z,17600
2017-05-03T13:19:20.782Z,16512
2017-05-03T13:20:20.790Z,14020
2017-05-03T13:21:21.083Z,12912
2017-05-03T13:22:20.779Z,12980
2017-05-03T13:23:21.084Z,13224
2017-05-03T13:24:20.780Z,12648
2017-05-03T13:25:21.083Z,10456
2017-05-03T13:26:21.081Z,8540
2017-05-03T13:27:21.076Z,8072